sensor_id;sensor_type;location;lat;lon;timestamp;P1;durP1;ratioP1;P2;durP2;ratioP2
64842;SDS011;51310;52.198;5.422;2024-02-14T00:01:40;6.93;;;5.40;;
64842;SDS011;51310;52.198;5.422;2024-02-14T00:04:06;11.00;;;5.68;;
64842;SDS011;51310;52.198;5.422;2024-02-14T00:06:35;8.80;;;5.40;;
64842;SDS011;51310;52.198;5.422;2024-02-14T00:09:02;11.02;;;5.88;;
64842;SDS011;51310;52.198;5.422;2024-02-14T00:11:28;10.25;;;6.07;;
64842;SDS011;51310;52.198;5.422;2024-02-14T00:13:54;8.57;;;5.85;;
64842;SDS011;51310;52.198;5.422;2024-02-14T00:16:21;9.70;;;5.85;;
64842;SDS011;51310;52.198;5.422;2024-02-14T00:18:47;11.85;;;5.85;;
64842;SDS011;51310;52.198;5.422;2024-02-14T00:21:13;12.23;;;5.90;;
64842;SDS011;51310;52.198;5.422;2024-02-14T00:23:39;7.07;;;5.25;;
64842;SDS011;51310;52.198;5.422;2024-02-14T00:26:05;10.57;;;6.65;;
64842;SDS011;51310;52.198;5.422;2024-02-14T00:28:31;11.75;;;6.00;;
64842;SDS011;51310;52.198;5.422;2024-02-14T00:30:56;9.32;;;5.80;;
64842;SDS011;51310;52.198;5.422;2024-02-14T00:33:23;7.53;;;5.72;;
64842;SDS011;51310;52.198;5.422;2024-02-14T00:35:49;7.55;;;5.30;;
64842;SDS011;51310;52.198;5.422;2024-02-14T00:38:15;8.30;;;5.82;;
64842;SDS011;51310;52.198;5.422;2024-02-14T00:40:41;9.32;;;6.28;;
64842;SDS011;51310;52.198;5.422;2024-02-14T00:43:07;8.85;;;5.43;;
64842;SDS011;51310;52.198;5.422;2024-02-14T00:45:33;10.35;;;6.57;;
64842;SDS011;51310;52.198;5.422;2024-02-14T00:47:59;10.23;;;6.28;;
64842;SDS011;51310;52.198;5.422;2024-02-14T00:50:28;9.60;;;6.80;;
64842;SDS011;51310;52.198;5.422;2024-02-14T00:52:54;9.98;;;7.15;;
64842;SDS011;51310;52.198;5.422;2024-02-14T00:55:20;9.38;;;6.95;;
64842;SDS011;51310;52.198;5.422;2024-02-14T00:57:46;10.40;;;6.88;;
64842;SDS011;51310;52.198;5.422;2024-02-14T01:00:12;10.13;;;6.70;;
64842;SDS011;51310;52.198;5.422;2024-02-14T01:02:38;9.77;;;7.30;;
64842;SDS011;51310;52.198;5.422;2024-02-14T01:05:04;10.50;;;7.32;;
64842;SDS011;51310;52.198;5.422;2024-02-14T01:07:31;12.63;;;8.43;;
64842;SDS011;51310;52.198;5.422;2024-02-14T01:09:56;13.73;;;9.13;;
64842;SDS011;51310;52.198;5.422;2024-02-14T01:12:22;11.23;;;8.80;;
64842;SDS011;51310;52.198;5.422;2024-02-14T01:14:48;16.13;;;10.30;;
64842;SDS011;51310;52.198;5.422;2024-02-14T01:17:14;14.15;;;10.02;;
64842;SDS011;51310;52.198;5.422;2024-02-14T01:19:40;18.67;;;9.95;;
64842;SDS011;51310;52.198;5.422;2024-02-14T01:22:06;16.25;;;10.65;;
64842;SDS011;51310;52.198;5.422;2024-02-14T01:24:33;18.08;;;9.82;;
64842;SDS011;51310;52.198;5.422;2024-02-14T01:26:59;17.10;;;11.98;;
64842;SDS011;51310;52.198;5.422;2024-02-14T01:29:25;18.92;;;11.30;;
64842;SDS011;51310;52.198;5.422;2024-02-14T01:31:52;16.92;;;11.77;;
64842;SDS011;51310;52.198;5.422;2024-02-14T01:34:17;17.95;;;11.82;;
64842;SDS011;51310;52.198;5.422;2024-02-14T01:36:43;17.67;;;11.63;;
64842;SDS011;51310;52.198;5.422;2024-02-14T01:39:09;19.08;;;11.45;;
64842;SDS011;51310;52.198;5.422;2024-02-14T01:41:36;18.55;;;11.05;;
64842;SDS011;51310;52.198;5.422;2024-02-14T01:44:03;21.52;;;12.68;;
64842;SDS011;51310;52.198;5.422;2024-02-14T01:46:29;20.48;;;11.88;;
64842;SDS011;51310;52.198;5.422;2024-02-14T01:48:55;18.20;;;11.75;;
64842;SDS011;51310;52.198;5.422;2024-02-14T01:51:22;18.20;;;13.00;;
64842;SDS011;51310;52.198;5.422;2024-02-14T01:53:50;17.70;;;12.38;;
64842;SDS011;51310;52.198;5.422;2024-02-14T01:56:19;26.65;;;13.30;;
64842;SDS011;51310;52.198;5.422;2024-02-14T01:58:45;19.02;;;13.00;;
64842;SDS011;51310;52.198;5.422;2024-02-14T02:01:12;19.05;;;11.27;;
64842;SDS011;51310;52.198;5.422;2024-02-14T02:03:38;22.13;;;13.77;;
64842;SDS011;51310;52.198;5.422;2024-02-14T02:06:05;18.85;;;12.38;;
64842;SDS011;51310;52.198;5.422;2024-02-14T02:08:31;18.42;;;12.63;;
64842;SDS011;51310;52.198;5.422;2024-02-14T02:10:58;16.77;;;11.85;;
64842;SDS011;51310;52.198;5.422;2024-02-14T02:13:24;19.10;;;14.30;;
64842;SDS011;51310;52.198;5.422;2024-02-14T02:15:50;22.75;;;12.88;;
64842;SDS011;51310;52.198;5.422;2024-02-14T02:18:18;20.67;;;13.77;;
64842;SDS011;51310;52.198;5.422;2024-02-14T02:20:45;17.88;;;12.27;;
64842;SDS011;51310;52.198;5.422;2024-02-14T02:23:11;19.15;;;12.32;;
64842;SDS011;51310;52.198;5.422;2024-02-14T02:25:41;17.92;;;11.77;;
64842;SDS011;51310;52.198;5.422;2024-02-14T02:28:08;16.80;;;10.32;;
64842;SDS011;51310;52.198;5.422;2024-02-14T02:30:37;19.27;;;12.95;;
64842;SDS011;51310;52.198;5.422;2024-02-14T02:33:03;18.05;;;12.73;;
64842;SDS011;51310;52.198;5.422;2024-02-14T02:35:30;17.73;;;11.88;;
64842;SDS011;51310;52.198;5.422;2024-02-14T02:37:56;17.05;;;10.85;;
64842;SDS011;51310;52.198;5.422;2024-02-14T02:40:23;16.42;;;11.20;;
64842;SDS011;51310;52.198;5.422;2024-02-14T02:42:50;15.85;;;10.18;;
64842;SDS011;51310;52.198;5.422;2024-02-14T02:45:17;19.83;;;11.77;;
64842;SDS011;51310;52.198;5.422;2024-02-14T02:47:42;16.13;;;10.25;;
64842;SDS011;51310;52.198;5.422;2024-02-14T02:50:08;18.02;;;10.65;;
64842;SDS011;51310;52.198;5.422;2024-02-14T02:52:34;17.70;;;11.52;;
64842;SDS011;51310;52.198;5.422;2024-02-14T02:55:00;17.98;;;11.90;;
64842;SDS011;51310;52.198;5.422;2024-02-14T02:57:29;15.15;;;10.55;;
64842;SDS011;51310;52.198;5.422;2024-02-14T02:59:57;17.27;;;10.70;;
64842;SDS011;51310;52.198;5.422;2024-02-14T03:02:23;18.65;;;12.13;;
64842;SDS011;51310;52.198;5.422;2024-02-14T03:04:50;16.73;;;11.50;;
64842;SDS011;51310;52.198;5.422;2024-02-14T03:07:18;15.02;;;10.45;;
64842;SDS011;51310;52.198;5.422;2024-02-14T03:09:45;13.60;;;9.73;;
64842;SDS011;51310;52.198;5.422;2024-02-14T03:12:11;16.13;;;10.43;;
64842;SDS011;51310;52.198;5.422;2024-02-14T03:14:41;13.77;;;9.40;;
64842;SDS011;51310;52.198;5.422;2024-02-14T03:17:08;16.10;;;10.43;;
64842;SDS011;51310;52.198;5.422;2024-02-14T03:19:35;17.42;;;10.00;;
64842;SDS011;51310;52.198;5.422;2024-02-14T03:22:04;19.45;;;10.23;;
64842;SDS011;51310;52.198;5.422;2024-02-14T03:24:33;14.90;;;9.98;;
64842;SDS011;51310;52.198;5.422;2024-02-14T03:27:02;18.90;;;10.20;;
64842;SDS011;51310;52.198;5.422;2024-02-14T03:29:31;15.65;;;10.75;;
64842;SDS011;51310;52.198;5.422;2024-02-14T03:32:00;19.60;;;11.60;;
64842;SDS011;51310;52.198;5.422;2024-02-14T03:34:29;21.67;;;12.18;;
64842;SDS011;51310;52.198;5.422;2024-02-14T03:36:58;22.17;;;13.73;;
64842;SDS011;51310;52.198;5.422;2024-02-14T03:39:27;30.75;;;12.73;;
64842;SDS011;51310;52.198;5.422;2024-02-14T03:41:54;21.33;;;13.82;;
64842;SDS011;51310;52.198;5.422;2024-02-14T03:44:21;22.45;;;13.80;;
64842;SDS011;51310;52.198;5.422;2024-02-14T03:46:48;23.10;;;13.65;;
64842;SDS011;51310;52.198;5.422;2024-02-14T03:49:15;26.60;;;15.30;;
64842;SDS011;51310;52.198;5.422;2024-02-14T03:51:40;31.30;;;13.68;;
64842;SDS011;51310;52.198;5.422;2024-02-14T03:54:06;33.35;;;13.88;;
64842;SDS011;51310;52.198;5.422;2024-02-14T03:56:32;22.73;;;13.05;;
64842;SDS011;51310;52.198;5.422;2024-02-14T03:58:58;20.15;;;13.73;;
64842;SDS011;51310;52.198;5.422;2024-02-14T04:01:24;23.35;;;13.75;;
64842;SDS011;51310;52.198;5.422;2024-02-14T04:03:50;24.08;;;14.35;;
64842;SDS011;51310;52.198;5.422;2024-02-14T04:06:16;22.92;;;12.90;;
64842;SDS011;51310;52.198;5.422;2024-02-14T04:08:42;27.40;;;13.85;;
64842;SDS011;51310;52.198;5.422;2024-02-14T04:11:09;31.88;;;14.18;;
64842;SDS011;51310;52.198;5.422;2024-02-14T04:13:35;24.13;;;14.80;;
64842;SDS011;51310;52.198;5.422;2024-02-14T04:16:01;32.70;;;15.57;;
64842;SDS011;51310;52.198;5.422;2024-02-14T04:18:27;29.58;;;15.88;;
64842;SDS011;51310;52.198;5.422;2024-02-14T04:20:53;28.92;;;15.32;;
64842;SDS011;51310;52.198;5.422;2024-02-14T04:23:19;32.33;;;16.50;;
64842;SDS011;51310;52.198;5.422;2024-02-14T04:25:46;34.30;;;17.85;;
64842;SDS011;51310;52.198;5.422;2024-02-14T04:28:13;30.02;;;17.25;;
64842;SDS011;51310;52.198;5.422;2024-02-14T04:30:39;41.05;;;18.23;;
64842;SDS011;51310;52.198;5.422;2024-02-14T04:33:06;40.45;;;18.17;;
64842;SDS011;51310;52.198;5.422;2024-02-14T04:35:33;35.25;;;16.00;;
64842;SDS011;51310;52.198;5.422;2024-02-14T04:37:59;42.13;;;17.80;;
64842;SDS011;51310;52.198;5.422;2024-02-14T04:40:25;31.70;;;16.25;;
64842;SDS011;51310;52.198;5.422;2024-02-14T04:42:50;35.28;;;18.02;;
64842;SDS011;51310;52.198;5.422;2024-02-14T04:45:17;36.63;;;16.15;;
64842;SDS011;51310;52.198;5.422;2024-02-14T04:47:43;34.92;;;18.42;;
64842;SDS011;51310;52.198;5.422;2024-02-14T04:50:09;36.15;;;18.00;;
64842;SDS011;51310;52.198;5.422;2024-02-14T04:52:35;32.65;;;16.80;;
64842;SDS011;51310;52.198;5.422;2024-02-14T04:55:01;42.97;;;17.13;;
64842;SDS011;51310;52.198;5.422;2024-02-14T04:57:28;38.75;;;17.63;;
64842;SDS011;51310;52.198;5.422;2024-02-14T04:59:54;34.40;;;15.88;;
64842;SDS011;51310;52.198;5.422;2024-02-14T05:02:20;32.53;;;16.50;;
64842;SDS011;51310;52.198;5.422;2024-02-14T05:04:47;34.65;;;17.67;;
64842;SDS011;51310;52.198;5.422;2024-02-14T05:07:13;32.58;;;16.65;;
64842;SDS011;51310;52.198;5.422;2024-02-14T05:09:38;32.30;;;17.52;;
64842;SDS011;51310;52.198;5.422;2024-02-14T05:12:05;33.45;;;16.52;;
64842;SDS011;51310;52.198;5.422;2024-02-14T05:14:32;41.28;;;18.80;;
64842;SDS011;51310;52.198;5.422;2024-02-14T05:16:57;43.15;;;17.67;;
64842;SDS011;51310;52.198;5.422;2024-02-14T05:19:26;38.35;;;19.80;;
64842;SDS011;51310;52.198;5.422;2024-02-14T05:21:52;41.22;;;19.10;;
64842;SDS011;51310;52.198;5.422;2024-02-14T05:24:18;59.35;;;19.08;;
64842;SDS011;51310;52.198;5.422;2024-02-14T05:26:44;36.05;;;19.27;;
64842;SDS011;51310;52.198;5.422;2024-02-14T05:29:10;52.63;;;20.15;;
64842;SDS011;51310;52.198;5.422;2024-02-14T05:31:45;36.83;;;17.15;;
64842;SDS011;51310;52.198;5.422;2024-02-14T05:34:13;43.92;;;18.42;;
64842;SDS011;51310;52.198;5.422;2024-02-14T05:36:39;42.22;;;17.38;;
64842;SDS011;51310;52.198;5.422;2024-02-14T05:39:07;48.45;;;18.25;;
64842;SDS011;51310;52.198;5.422;2024-02-14T05:41:33;41.20;;;17.73;;
64842;SDS011;51310;52.198;5.422;2024-02-14T05:43:59;42.60;;;18.63;;
64842;SDS011;51310;52.198;5.422;2024-02-14T05:46:25;38.50;;;17.23;;
64842;SDS011;51310;52.198;5.422;2024-02-14T05:48:52;30.45;;;16.08;;
64842;SDS011;51310;52.198;5.422;2024-02-14T05:51:18;34.40;;;17.38;;
64842;SDS011;51310;52.198;5.422;2024-02-14T05:53:44;36.97;;;16.67;;
64842;SDS011;51310;52.198;5.422;2024-02-14T05:56:10;34.97;;;15.63;;
64842;SDS011;51310;52.198;5.422;2024-02-14T05:58:36;32.08;;;15.95;;
64842;SDS011;51310;52.198;5.422;2024-02-14T06:01:01;36.67;;;16.52;;
64842;SDS011;51310;52.198;5.422;2024-02-14T06:03:27;24.80;;;14.13;;
64842;SDS011;51310;52.198;5.422;2024-02-14T06:05:53;27.15;;;13.98;;
64842;SDS011;51310;52.198;5.422;2024-02-14T06:08:20;30.88;;;14.60;;
64842;SDS011;51310;52.198;5.422;2024-02-14T06:10:46;23.23;;;13.02;;
64842;SDS011;51310;52.198;5.422;2024-02-14T06:13:12;20.45;;;12.38;;
64842;SDS011;51310;52.198;5.422;2024-02-14T06:15:38;21.25;;;11.18;;
64842;SDS011;51310;52.198;5.422;2024-02-14T06:18:04;20.73;;;11.05;;
64842;SDS011;51310;52.198;5.422;2024-02-14T06:20:31;26.65;;;13.00;;
64842;SDS011;51310;52.198;5.422;2024-02-14T06:22:57;22.33;;;11.73;;
64842;SDS011;51310;52.198;5.422;2024-02-14T06:25:23;21.13;;;12.38;;
64842;SDS011;51310;52.198;5.422;2024-02-14T06:27:49;27.02;;;12.90;;
64842;SDS011;51310;52.198;5.422;2024-02-14T06:30:15;24.58;;;13.30;;
64842;SDS011;51310;52.198;5.422;2024-02-14T06:32:42;25.08;;;13.05;;
64842;SDS011;51310;52.198;5.422;2024-02-14T06:35:08;23.27;;;13.02;;
64842;SDS011;51310;52.198;5.422;2024-02-14T06:37:33;22.08;;;13.32;;
64842;SDS011;51310;52.198;5.422;2024-02-14T06:39:59;20.58;;;12.30;;
64842;SDS011;51310;52.198;5.422;2024-02-14T06:42:25;17.52;;;11.25;;
64842;SDS011;51310;52.198;5.422;2024-02-14T06:44:51;18.75;;;11.65;;
64842;SDS011;51310;52.198;5.422;2024-02-14T06:47:17;19.35;;;11.35;;
64842;SDS011;51310;52.198;5.422;2024-02-14T06:49:43;24.95;;;11.70;;
64842;SDS011;51310;52.198;5.422;2024-02-14T06:52:09;19.42;;;11.80;;
64842;SDS011;51310;52.198;5.422;2024-02-14T06:54:35;22.10;;;10.55;;
64842;SDS011;51310;52.198;5.422;2024-02-14T06:57:01;19.13;;;11.35;;
64842;SDS011;51310;52.198;5.422;2024-02-14T06:59:27;21.63;;;11.18;;
64842;SDS011;51310;52.198;5.422;2024-02-14T07:01:52;28.42;;;13.32;;
64842;SDS011;51310;52.198;5.422;2024-02-14T07:04:20;25.17;;;13.52;;
64842;SDS011;51310;52.198;5.422;2024-02-14T07:06:51;23.92;;;13.63;;
64842;SDS011;51310;52.198;5.422;2024-02-14T07:09:18;32.65;;;16.00;;
64842;SDS011;51310;52.198;5.422;2024-02-14T07:11:44;30.92;;;14.43;;
64842;SDS011;51310;52.198;5.422;2024-02-14T07:14:11;38.00;;;17.00;;
64842;SDS011;51310;52.198;5.422;2024-02-14T07:16:37;35.20;;;16.52;;
64842;SDS011;51310;52.198;5.422;2024-02-14T07:19:03;31.30;;;16.63;;
64842;SDS011;51310;52.198;5.422;2024-02-14T07:21:29;36.40;;;18.27;;
64842;SDS011;51310;52.198;5.422;2024-02-14T07:23:55;38.33;;;17.42;;
64842;SDS011;51310;52.198;5.422;2024-02-14T07:26:20;35.10;;;17.42;;
64842;SDS011;51310;52.198;5.422;2024-02-14T07:28:46;34.50;;;17.17;;
64842;SDS011;51310;52.198;5.422;2024-02-14T07:31:12;41.88;;;19.23;;
64842;SDS011;51310;52.198;5.422;2024-02-14T07:33:38;37.00;;;18.30;;
64842;SDS011;51310;52.198;5.422;2024-02-14T07:36:04;31.70;;;18.50;;
64842;SDS011;51310;52.198;5.422;2024-02-14T07:38:31;35.00;;;18.48;;
64842;SDS011;51310;52.198;5.422;2024-02-14T07:40:56;29.95;;;17.55;;
64842;SDS011;51310;52.198;5.422;2024-02-14T07:43:22;34.95;;;17.58;;
64842;SDS011;51310;52.198;5.422;2024-02-14T07:45:48;33.78;;;17.70;;
64842;SDS011;51310;52.198;5.422;2024-02-14T07:48:15;31.27;;;16.52;;
64842;SDS011;51310;52.198;5.422;2024-02-14T07:50:41;36.72;;;19.20;;
64842;SDS011;51310;52.198;5.422;2024-02-14T07:53:07;33.90;;;16.83;;
64842;SDS011;51310;52.198;5.422;2024-02-14T07:55:32;33.38;;;17.60;;
64842;SDS011;51310;52.198;5.422;2024-02-14T07:57:58;33.10;;;17.40;;
64842;SDS011;51310;52.198;5.422;2024-02-14T08:00:25;33.00;;;18.13;;
64842;SDS011;51310;52.198;5.422;2024-02-14T08:02:51;32.35;;;16.10;;
64842;SDS011;51310;52.198;5.422;2024-02-14T08:05:17;32.30;;;17.88;;
64842;SDS011;51310;52.198;5.422;2024-02-14T08:07:46;33.70;;;18.48;;
64842;SDS011;51310;52.198;5.422;2024-02-14T08:10:12;34.97;;;19.02;;
64842;SDS011;51310;52.198;5.422;2024-02-14T08:12:38;31.80;;;18.48;;
64842;SDS011;51310;52.198;5.422;2024-02-14T08:15:04;38.60;;;17.70;;
64842;SDS011;51310;52.198;5.422;2024-02-14T08:17:31;29.13;;;16.75;;
64842;SDS011;51310;52.198;5.422;2024-02-14T08:19:58;35.08;;;16.90;;
64842;SDS011;51310;52.198;5.422;2024-02-14T08:22:25;41.58;;;19.00;;
64842;SDS011;51310;52.198;5.422;2024-02-14T08:24:52;38.78;;;18.83;;
64842;SDS011;51310;52.198;5.422;2024-02-14T08:27:18;41.75;;;16.50;;
64842;SDS011;51310;52.198;5.422;2024-02-14T08:29:44;30.90;;;18.38;;
64842;SDS011;51310;52.198;5.422;2024-02-14T08:32:09;39.28;;;17.13;;
64842;SDS011;51310;52.198;5.422;2024-02-14T08:34:35;31.98;;;17.65;;
64842;SDS011;51310;52.198;5.422;2024-02-14T08:37:01;35.33;;;17.45;;
64842;SDS011;51310;52.198;5.422;2024-02-14T08:39:27;32.85;;;17.63;;
64842;SDS011;51310;52.198;5.422;2024-02-14T08:41:53;29.83;;;18.52;;
64842;SDS011;51310;52.198;5.422;2024-02-14T08:44:19;34.65;;;17.55;;
64842;SDS011;51310;52.198;5.422;2024-02-14T08:46:45;31.40;;;18.02;;
64842;SDS011;51310;52.198;5.422;2024-02-14T08:49:13;38.08;;;17.60;;
64842;SDS011;51310;52.198;5.422;2024-02-14T08:51:39;38.90;;;19.52;;
64842;SDS011;51310;52.198;5.422;2024-02-14T08:54:07;32.55;;;18.23;;
64842;SDS011;51310;52.198;5.422;2024-02-14T08:56:33;36.55;;;19.00;;
64842;SDS011;51310;52.198;5.422;2024-02-14T08:59:00;32.22;;;18.35;;
64842;SDS011;51310;52.198;5.422;2024-02-14T09:01:27;31.33;;;17.08;;
64842;SDS011;51310;52.198;5.422;2024-02-14T09:03:55;33.35;;;17.50;;
64842;SDS011;51310;52.198;5.422;2024-02-14T09:06:21;30.25;;;17.58;;
64842;SDS011;51310;52.198;5.422;2024-02-14T09:08:47;33.67;;;16.83;;
64842;SDS011;51310;52.198;5.422;2024-02-14T09:11:18;32.30;;;16.88;;
64842;SDS011;51310;52.198;5.422;2024-02-14T09:13:44;23.75;;;14.45;;
64842;SDS011;51310;52.198;5.422;2024-02-14T09:16:12;25.02;;;14.63;;
64842;SDS011;51310;52.198;5.422;2024-02-14T09:18:41;25.52;;;14.18;;
64842;SDS011;51310;52.198;5.422;2024-02-14T09:21:10;27.38;;;14.68;;
64842;SDS011;51310;52.198;5.422;2024-02-14T09:23:36;22.33;;;14.10;;
64842;SDS011;51310;52.198;5.422;2024-02-14T09:26:05;21.98;;;13.80;;
64842;SDS011;51310;52.198;5.422;2024-02-14T09:28:32;23.48;;;14.60;;
64842;SDS011;51310;52.198;5.422;2024-02-14T09:30:59;22.63;;;14.07;;
64842;SDS011;51310;52.198;5.422;2024-02-14T09:33:28;21.88;;;12.82;;
64842;SDS011;51310;52.198;5.422;2024-02-14T09:35:55;21.65;;;14.27;;
64842;SDS011;51310;52.198;5.422;2024-02-14T09:38:21;26.02;;;13.75;;
64842;SDS011;51310;52.198;5.422;2024-02-14T09:40:48;26.80;;;12.88;;
64842;SDS011;51310;52.198;5.422;2024-02-14T09:43:31;21.73;;;12.83;;
64842;SDS011;51310;52.198;5.422;2024-02-14T09:46:07;25.90;;;12.93;;
64842;SDS011;51310;52.198;5.422;2024-02-14T09:48:34;20.60;;;12.32;;
64842;SDS011;51310;52.198;5.422;2024-02-14T09:51:03;21.70;;;12.82;;
64842;SDS011;51310;52.198;5.422;2024-02-14T09:53:29;20.90;;;12.05;;
64842;SDS011;51310;52.198;5.422;2024-02-14T09:55:56;21.48;;;11.13;;
64842;SDS011;51310;52.198;5.422;2024-02-14T09:58:24;21.25;;;12.02;;
64842;SDS011;51310;52.198;5.422;2024-02-14T10:00:59;32.15;;;12.95;;
64842;SDS011;51310;52.198;5.422;2024-02-14T10:03:26;30.27;;;15.27;;
64842;SDS011;51310;52.198;5.422;2024-02-14T10:05:52;22.95;;;14.52;;
64842;SDS011;51310;52.198;5.422;2024-02-14T10:08:18;27.15;;;15.43;;
64842;SDS011;51310;52.198;5.422;2024-02-14T10:10:45;30.95;;;15.20;;
64842;SDS011;51310;52.198;5.422;2024-02-14T10:13:12;37.25;;;17.38;;
64842;SDS011;51310;52.198;5.422;2024-02-14T10:15:38;36.47;;;18.30;;
64842;SDS011;51310;52.198;5.422;2024-02-14T10:18:04;32.65;;;19.38;;
64842;SDS011;51310;52.198;5.422;2024-02-14T10:20:30;31.70;;;18.60;;
64842;SDS011;51310;52.198;5.422;2024-02-14T10:23:02;34.35;;;20.20;;
64842;SDS011;51310;52.198;5.422;2024-02-14T10:25:29;35.38;;;19.98;;
64842;SDS011;51310;52.198;5.422;2024-02-14T10:27:56;31.55;;;18.10;;
64842;SDS011;51310;52.198;5.422;2024-02-14T10:30:22;30.92;;;18.48;;
64842;SDS011;51310;52.198;5.422;2024-02-14T10:32:48;30.75;;;17.42;;
64842;SDS011;51310;52.198;5.422;2024-02-14T10:35:15;34.10;;;18.30;;
64842;SDS011;51310;52.198;5.422;2024-02-14T10:37:42;27.67;;;15.70;;
64842;SDS011;51310;52.198;5.422;2024-02-14T10:40:09;26.48;;;15.88;;
64842;SDS011;51310;52.198;5.422;2024-02-14T10:42:36;27.65;;;16.38;;
64842;SDS011;51310;52.198;5.422;2024-02-14T10:45:02;28.83;;;13.65;;
64842;SDS011;51310;52.198;5.422;2024-02-14T10:47:35;25.20;;;15.57;;
64842;SDS011;51310;52.198;5.422;2024-02-14T10:50:07;25.83;;;14.23;;
64842;SDS011;51310;52.198;5.422;2024-02-14T10:52:36;28.83;;;14.52;;
64842;SDS011;51310;52.198;5.422;2024-02-14T10:55:06;24.40;;;14.30;;
64842;SDS011;51310;52.198;5.422;2024-02-14T10:57:34;24.58;;;15.43;;
64842;SDS011;51310;52.198;5.422;2024-02-14T11:00:18;25.90;;;14.07;;
64842;SDS011;51310;52.198;5.422;2024-02-14T11:02:44;22.30;;;12.70;;
64842;SDS011;51310;52.198;5.422;2024-02-14T11:05:12;21.33;;;12.13;;
64842;SDS011;51310;52.198;5.422;2024-02-14T11:07:46;24.00;;;13.30;;
64842;SDS011;51310;52.198;5.422;2024-02-14T11:10:15;20.15;;;12.85;;
64842;SDS011;51310;52.198;5.422;2024-02-14T11:12:43;18.50;;;11.77;;
64842;SDS011;51310;52.198;5.422;2024-02-14T11:15:21;22.70;;;12.20;;
64842;SDS011;51310;52.198;5.422;2024-02-14T11:18:03;24.25;;;12.73;;
64842;SDS011;51310;52.198;5.422;2024-02-14T11:20:32;22.27;;;11.57;;
64842;SDS011;51310;52.198;5.422;2024-02-14T11:23:02;18.38;;;11.70;;
64842;SDS011;51310;52.198;5.422;2024-02-14T11:25:34;20.23;;;11.70;;
64842;SDS011;51310;52.198;5.422;2024-02-14T11:28:01;20.20;;;12.23;;
64842;SDS011;51310;52.198;5.422;2024-02-14T11:30:53;27.77;;;10.80;;
64842;SDS011;51310;52.198;5.422;2024-02-14T11:33:28;18.58;;;11.07;;
64842;SDS011;51310;52.198;5.422;2024-02-14T11:35:54;22.60;;;11.23;;
64842;SDS011;51310;52.198;5.422;2024-02-14T11:38:22;16.83;;;11.18;;
64842;SDS011;51310;52.198;5.422;2024-02-14T11:40:54;16.40;;;10.68;;
64842;SDS011;51310;52.198;5.422;2024-02-14T11:43:21;18.58;;;11.32;;
64842;SDS011;51310;52.198;5.422;2024-02-14T11:45:48;16.25;;;10.90;;
64842;SDS011;51310;52.198;5.422;2024-02-14T11:48:15;25.67;;;12.45;;
64842;SDS011;51310;52.198;5.422;2024-02-14T11:50:43;20.70;;;12.90;;
64842;SDS011;51310;52.198;5.422;2024-02-14T11:53:10;21.38;;;13.15;;
64842;SDS011;51310;52.198;5.422;2024-02-14T11:55:41;23.05;;;12.93;;
64842;SDS011;51310;52.198;5.422;2024-02-14T11:58:08;19.65;;;13.25;;
64842;SDS011;51310;52.198;5.422;2024-02-14T12:00:41;17.55;;;11.98;;
64842;SDS011;51310;52.198;5.422;2024-02-14T12:03:11;19.23;;;12.13;;
64842;SDS011;51310;52.198;5.422;2024-02-14T12:05:44;17.83;;;11.43;;
64842;SDS011;51310;52.198;5.422;2024-02-14T12:08:22;22.55;;;13.68;;
64842;SDS011;51310;52.198;5.422;2024-02-14T12:10:48;32.70;;;12.77;;
64842;SDS011;51310;52.198;5.422;2024-02-14T12:13:15;20.05;;;12.13;;
64842;SDS011;51310;52.198;5.422;2024-02-14T12:15:46;17.85;;;11.75;;
64842;SDS011;51310;52.198;5.422;2024-02-14T12:18:16;28.75;;;13.80;;
64842;SDS011;51310;52.198;5.422;2024-02-14T12:20:44;23.60;;;14.02;;
64842;SDS011;51310;52.198;5.422;2024-02-14T12:23:15;23.95;;;15.93;;
64842;SDS011;51310;52.198;5.422;2024-02-14T12:25:43;28.70;;;15.88;;
64842;SDS011;51310;52.198;5.422;2024-02-14T12:28:19;29.27;;;17.65;;
64842;SDS011;51310;52.198;5.422;2024-02-14T12:30:49;25.80;;;16.20;;
64842;SDS011;51310;52.198;5.422;2024-02-14T12:33:21;26.25;;;17.33;;
64842;SDS011;51310;52.198;5.422;2024-02-14T12:35:51;24.38;;;15.52;;
64842;SDS011;51310;52.198;5.422;2024-02-14T12:38:20;22.92;;;14.88;;
64842;SDS011;51310;52.198;5.422;2024-02-14T12:40:48;28.13;;;14.52;;
64842;SDS011;51310;52.198;5.422;2024-02-14T12:43:15;23.15;;;14.60;;
64842;SDS011;51310;52.198;5.422;2024-02-14T12:45:41;24.48;;;14.85;;
64842;SDS011;51310;52.198;5.422;2024-02-14T12:48:09;21.20;;;14.05;;
64842;SDS011;51310;52.198;5.422;2024-02-14T12:50:38;19.05;;;11.85;;
64842;SDS011;51310;52.198;5.422;2024-02-14T12:53:09;18.45;;;12.00;;
64842;SDS011;51310;52.198;5.422;2024-02-14T12:55:35;17.90;;;11.10;;
64842;SDS011;51310;52.198;5.422;2024-02-14T12:58:01;17.10;;;9.93;;
64842;SDS011;51310;52.198;5.422;2024-02-14T13:00:28;17.15;;;10.05;;
64842;SDS011;51310;52.198;5.422;2024-02-14T13:02:56;17.05;;;9.90;;
64842;SDS011;51310;52.198;5.422;2024-02-14T13:05:23;15.60;;;9.98;;
64842;SDS011;51310;52.198;5.422;2024-02-14T13:07:50;12.45;;;8.75;;
64842;SDS011;51310;52.198;5.422;2024-02-14T13:10:17;13.35;;;8.95;;
64842;SDS011;51310;52.198;5.422;2024-02-14T13:12:43;11.25;;;7.13;;
64842;SDS011;51310;52.198;5.422;2024-02-14T13:15:10;10.65;;;6.47;;
64842;SDS011;51310;52.198;5.422;2024-02-14T13:17:36;10.10;;;6.88;;
64842;SDS011;51310;52.198;5.422;2024-02-14T13:20:03;9.45;;;5.95;;
64842;SDS011;51310;52.198;5.422;2024-02-14T13:22:30;8.88;;;5.68;;
64842;SDS011;51310;52.198;5.422;2024-02-14T13:24:57;9.23;;;5.82;;
64842;SDS011;51310;52.198;5.422;2024-02-14T13:27:25;7.65;;;5.25;;
64842;SDS011;51310;52.198;5.422;2024-02-14T13:29:51;7.80;;;5.60;;
64842;SDS011;51310;52.198;5.422;2024-02-14T13:32:17;11.60;;;7.60;;
64842;SDS011;51310;52.198;5.422;2024-02-14T13:34:43;12.55;;;8.00;;
64842;SDS011;51310;52.198;5.422;2024-02-14T13:37:09;12.73;;;7.55;;
64842;SDS011;51310;52.198;5.422;2024-02-14T13:39:35;12.23;;;8.27;;
64842;SDS011;51310;52.198;5.422;2024-02-14T13:42:01;15.98;;;8.52;;
64842;SDS011;51310;52.198;5.422;2024-02-14T13:44:28;15.13;;;8.75;;
64842;SDS011;51310;52.198;5.422;2024-02-14T13:46:54;12.13;;;7.32;;
64842;SDS011;51310;52.198;5.422;2024-02-14T13:49:20;12.05;;;8.07;;
64842;SDS011;51310;52.198;5.422;2024-02-14T13:51:50;12.80;;;9.05;;
64842;SDS011;51310;52.198;5.422;2024-02-14T13:54:18;12.18;;;8.10;;
64842;SDS011;51310;52.198;5.422;2024-02-14T13:56:50;10.25;;;7.72;;
64842;SDS011;51310;52.198;5.422;2024-02-14T13:59:17;11.60;;;8.00;;
64842;SDS011;51310;52.198;5.422;2024-02-14T14:01:44;11.20;;;8.00;;
64842;SDS011;51310;52.198;5.422;2024-02-14T14:04:11;11.20;;;7.75;;
64842;SDS011;51310;52.198;5.422;2024-02-14T14:06:38;11.98;;;6.90;;
64842;SDS011;51310;52.198;5.422;2024-02-14T14:09:04;10.40;;;7.38;;
64842;SDS011;51310;52.198;5.422;2024-02-14T14:11:32;12.30;;;7.47;;
64842;SDS011;51310;52.198;5.422;2024-02-14T14:13:59;10.60;;;7.18;;
64842;SDS011;51310;52.198;5.422;2024-02-14T14:16:25;10.27;;;5.82;;
64842;SDS011;51310;52.198;5.422;2024-02-14T14:18:51;9.60;;;6.25;;
64842;SDS011;51310;52.198;5.422;2024-02-14T14:21:17;9.40;;;6.55;;
64842;SDS011;51310;52.198;5.422;2024-02-14T14:23:43;9.50;;;6.53;;
64842;SDS011;51310;52.198;5.422;2024-02-14T14:26:10;11.82;;;6.82;;